Winona, MN

3:16 PM CDT on April 24, 2017 (GMT -0500)
Winona Municipal-Conrad

Weather History for KONA - February, 2014

Change the Weather History Date:

Friday, February 21, 2014

  Actual Average Record
Temperature  
Mean Temperature 21 °F -  
Max Temperature 28 °F 37 °F 60 °F (2017)
Min Temperature 14 °F 18 °F -16 °F (2008)
Degree Days  
Heating Degree Days 44    
Moisture  
Dew Point 12 °F    
Average Humidity 75    
Maximum Humidity 86    
Minimum Humidity 63    
Precipitation  
Precipitation 0.00 in - - ()
Sea Level Pressure  
Sea Level Pressure 29.54 in    
Wind  
Wind Speed 15 mph (WNW)    
Max Wind Speed 22 mph    
Max Gust Speed 38 mph    
Visibility 8 miles    
Events Snow    
Averages and records for this station are not official NWS values.
T = Trace of Precipitation, MM = Missing Value Source: NWS Daily Summary

Daily Weather History Graph

Daily Weather History Graph

Search for Another Location

Airport or City:

Trip Planner

Search our weather history database for the weather conditions in past years. The results will help you decide how hot, cold, wet, or windy it might be!

Date:

Astronomy

Feb. 21, 2014 Rise Set
Actual Time 6:56 AM CST 5:44 PM CST
Civil Twilight 6:27 AM CST 6:13 PM CST
Nautical Twilight 5:54 AM CST 6:47 PM CST
Astronomical Twilight 5:20 AM CST 7:21 PM CST
Moon No Moon Rise 10:07 AM CST (2/21)
Length of Visible Light 11h 46m
Length of Day
10h 47m
Waning Gibbous, 60% of the Moon is Illuminated
Feb 21
Waning Gibbous
Feb 22
Last Quarter
Mar 1
New
Mar 8
First Quarter
Mar 16
Full

Hourly Weather History & Observations

Time (CST) Temp. Windchill Dew Point Humidity Pressure Visibility Wind Dir Wind Speed Gust Speed Precip Events Conditions
12:18 AM 28.4 °F 16.6 °F 23.0 °F 80% 29.20 in 2.5 mi WNW 16.1 mph 29.9 mph N/A Snow Light Snow
12:39 AM 26.6 °F 13.8 °F 23.0 °F 86% 29.21 in 4.0 mi WNW 17.3 mph 24.2 mph N/A   Overcast
12:58 AM 24.8 °F 11.5 °F 21.2 °F 86% 29.23 in 2.5 mi West 17.3 mph 25.3 mph N/A Snow Light Snow
1:19 AM 23.0 °F 8.7 °F 17.6 °F 80% 29.24 in 3.0 mi WNW 18.4 mph 27.6 mph N/A Snow Light Snow
1:39 AM 21.2 °F 5.2 °F 17.6 °F 86% 29.25 in 3.0 mi WNW 21.9 mph 28.8 mph N/A   Overcast
1:58 AM 21.2 °F 6.0 °F 15.8 °F 80% 29.27 in 3.0 mi WNW 19.6 mph 28.8 mph N/A   Haze
2:19 AM 19.4 °F 6.0 °F 14.0 °F 80% 29.28 in 4.0 mi WNW 13.8 mph 19.6 mph N/A Snow Light Snow
2:39 AM 19.4 °F 5.0 °F 14.0 °F 80% 29.29 in 3.0 mi West 16.1 mph 25.3 mph N/A Snow Light Snow
2:58 AM 19.4 °F 5.5 °F 14.0 °F 80% 29.30 in 2.5 mi WNW 15.0 mph 25.3 mph N/A Snow Light Snow
3:19 AM 19.4 °F 5.5 °F 14.0 °F 80% 29.31 in 4.0 mi WNW 15.0 mph 27.6 mph N/A Snow Light Snow
3:39 AM 17.6 °F 1.7 °F 12.2 °F 79% 29.32 in 5.0 mi WNW 18.4 mph 28.8 mph N/A Snow Light Snow
3:59 AM 17.6 °F 3.7 °F 12.2 °F 79% 29.34 in 5.0 mi West 13.8 mph 25.3 mph N/A Snow Light Snow
4:18 AM 17.6 °F 4.3 °F 12.2 °F 79% 29.34 in 5.0 mi WNW 12.7 mph 29.9 mph N/A Snow Light Snow
4:39 AM 17.6 °F 2.7 °F 12.2 °F 79% 29.36 in 7.0 mi WNW 16.1 mph 24.2 mph N/A   Overcast
4:59 AM 17.6 °F 2.2 °F 10.4 °F 73% 29.38 in 5.0 mi WNW 17.3 mph 27.6 mph N/A   Haze
5:19 AM 15.8 °F 3.4 °F 10.4 °F 79% 29.38 in 10.0 mi WNW 10.4 mph 24.2 mph N/A   Overcast
5:39 AM 15.8 °F 2.1 °F 10.4 °F 79% 29.39 in 10.0 mi West 12.7 mph 25.3 mph N/A   Overcast
5:58 AM 14.0 °F -0.2 °F 8.6 °F 79% 29.41 in 10.0 mi West 12.7 mph 23.0 mph N/A   Overcast
6:19 AM 14.0 °F 2.0 °F 8.6 °F 79% 29.42 in 5.0 mi WNW 9.2 mph 20.7 mph N/A   Haze
6:39 AM 14.0 °F -0.2 °F 8.6 °F 79% 29.43 in 10.0 mi WNW 12.7 mph 28.8 mph N/A   Overcast
6:58 AM 14.0 °F -0.2 °F 8.6 °F 79% 29.43 in 10.0 mi WNW 12.7 mph 23.0 mph N/A   Overcast
7:19 AM 14.0 °F 0.5 °F 8.6 °F 79% 29.44 in 10.0 mi WNW 11.5 mph 25.3 mph N/A   Overcast
7:39 AM 14.0 °F -2.0 °F 8.6 °F 79% 29.45 in 10.0 mi WNW 16.1 mph 21.9 mph N/A   Overcast
7:58 AM 14.0 °F 0.5 °F 8.6 °F 79% 29.46 in 7.0 mi WNW 11.5 mph 26.5 mph N/A   Overcast
8:19 AM 14.0 °F -2.0 °F 8.6 °F 79% 29.48 in 7.0 mi West 16.1 mph 26.5 mph N/A   Overcast
8:39 AM 14.0 °F -0.2 °F 8.6 °F 79% 29.48 in 7.0 mi WNW 12.7 mph 24.2 mph N/A   Overcast
8:58 AM 14.0 °F 0.5 °F 8.6 °F 79% 29.48 in 7.0 mi WNW 11.5 mph 24.2 mph N/A   Overcast
9:19 AM 14.0 °F -1.4 °F 8.6 °F 79% 29.49 in 7.0 mi WNW 15.0 mph 27.6 mph N/A   Overcast
9:39 AM 14.0 °F -2.0 °F 6.8 °F 73% 29.50 in 7.0 mi WNW 16.1 mph 38.0 mph N/A   Overcast
9:58 AM 14.0 °F -1.4 °F 8.6 °F 79% 29.51 in 7.0 mi WNW 15.0 mph 21.9 mph N/A   Overcast
10:19 AM 14.0 °F -2.5 °F 8.6 °F 79% 29.52 in 10.0 mi WNW 17.3 mph 26.5 mph N/A   Overcast
10:38 AM 14.0 °F -2.0 °F 8.6 °F 79% 29.52 in 10.0 mi NW 16.1 mph 24.2 mph N/A   Overcast
10:59 AM 15.8 °F -0.2 °F 8.6 °F 73% 29.53 in 7.0 mi WNW 17.3 mph 26.5 mph N/A   Overcast
11:19 AM 17.6 °F 3.7 °F 10.4 °F 73% 29.54 in 10.0 mi West 13.8 mph 20.7 mph N/A   Overcast
11:38 AM 17.6 °F 3.2 °F 10.4 °F 73% 29.55 in 7.0 mi West 15.0 mph 25.3 mph N/A   Overcast
11:59 AM 17.6 °F 1.7 °F 10.4 °F 73% 29.55 in 5.0 mi WNW 18.4 mph 26.5 mph N/A   Haze
12:18 PM 17.6 °F 1.7 °F 10.4 °F 73% 29.55 in 7.0 mi West 18.4 mph 31.1 mph N/A   Overcast
12:39 PM 19.4 °F 6.0 °F 10.4 °F 68% 29.56 in 7.0 mi WNW 13.8 mph 24.2 mph N/A   Overcast
12:59 PM 19.4 °F 7.2 °F 10.4 °F 68% 29.56 in 10.0 mi WNW 11.5 mph 24.2 mph N/A   Overcast
1:18 PM 19.4 °F 6.0 °F 12.2 °F 74% 29.57 in 7.0 mi West 13.8 mph 24.2 mph N/A   Overcast
1:39 PM 19.4 °F 7.2 °F 12.2 °F 74% 29.58 in 10.0 mi West 11.5 mph 24.2 mph N/A   Overcast
1:59 PM 21.2 °F 8.9 °F 12.2 °F 68% 29.58 in 10.0 mi WNW 12.7 mph 24.2 mph N/A   Mostly Cloudy
2:18 PM 21.2 °F 6.4 °F 12.2 °F 68% 29.59 in 10.0 mi West 18.4 mph 24.2 mph N/A   Scattered Clouds
2:39 PM 21.2 °F 8.9 °F 12.2 °F 68% 29.60 in 10.0 mi WNW 12.7 mph 24.2 mph N/A   Scattered Clouds
2:59 PM 21.2 °F 7.3 °F 12.2 °F 68% 29.61 in 10.0 mi West 16.1 mph 24.2 mph N/A   Clear
3:18 PM 21.2 °F 7.3 °F 12.2 °F 68% 29.62 in 10.0 mi WNW 16.1 mph 27.6 mph N/A   Clear
3:39 PM 21.2 °F 6.4 °F 12.2 °F 68% 29.63 in 10.0 mi West 18.4 mph 24.2 mph N/A   Clear
3:59 PM 23.0 °F 9.6 °F 12.2 °F 63% 29.64 in 10.0 mi West 16.1 mph 24.2 mph N/A   Clear
4:18 PM 21.2 °F 8.3 °F 12.2 °F 68% 29.64 in 10.0 mi WNW 13.8 mph 21.9 mph N/A   Clear
4:39 PM 21.2 °F 7.8 °F 12.2 °F 68% 29.65 in 10.0 mi WNW 15.0 mph 24.2 mph N/A   Clear
4:59 PM 21.2 °F 7.3 °F 12.2 °F 68% 29.67 in 10.0 mi West 16.1 mph 25.3 mph N/A   Clear
5:18 PM 21.2 °F 8.9 °F 12.2 °F 68% 29.67 in 10.0 mi West 12.7 mph 26.5 mph N/A   Clear
5:39 PM 21.2 °F 7.8 °F 12.2 °F 68% 29.68 in 10.0 mi West 15.0 mph 27.6 mph N/A   Clear
5:59 PM 19.4 °F 5.0 °F 12.2 °F 74% 29.69 in 10.0 mi West 16.1 mph 27.6 mph N/A   Clear
6:19 PM 19.4 °F 6.6 °F 12.2 °F 74% 29.69 in 10.0 mi West 12.7 mph 20.7 mph N/A   Clear
6:39 PM 19.4 °F 7.9 °F 12.2 °F 74% 29.71 in 10.0 mi WNW 10.4 mph 19.6 mph N/A   Clear
6:59 PM 19.4 °F 5.0 °F 12.2 °F 74% 29.72 in 10.0 mi West 16.1 mph 25.3 mph N/A   Clear
7:19 PM 19.4 °F 5.5 °F 12.2 °F 74% 29.72 in 10.0 mi West 15.0 mph 26.5 mph N/A   Clear
7:39 PM 19.4 °F 4.1 °F 12.2 °F 74% 29.72 in 10.0 mi WNW 18.4 mph 26.5 mph N/A   Clear
7:59 PM 19.4 °F 4.1 °F 12.2 °F 74% 29.73 in 10.0 mi West 18.4 mph 29.9 mph N/A   Clear
8:18 PM 21.2 °F 6.0 °F 12.2 °F 68% 29.74 in 10.0 mi West 19.6 mph 27.6 mph N/A   Clear
8:39 PM 21.2 °F 7.8 °F 12.2 °F 68% 29.74 in 10.0 mi WNW 15.0 mph 25.3 mph N/A   Clear
8:59 PM 21.2 °F 8.3 °F 12.2 °F 68% 29.75 in 10.0 mi WNW 13.8 mph 27.6 mph N/A   Clear
9:18 PM 19.4 °F 6.6 °F 12.2 °F 74% 29.76 in 10.0 mi WNW 12.7 mph 24.2 mph N/A   Clear
9:39 PM 19.4 °F 7.2 °F 12.2 °F 74% 29.76 in 10.0 mi West 11.5 mph 20.7 mph N/A   Clear
9:59 PM 19.4 °F 7.9 °F 12.2 °F 74% 29.77 in 10.0 mi WNW 10.4 mph 21.9 mph N/A   Clear
10:19 PM 19.4 °F 7.2 °F 12.2 °F 74% 29.77 in 10.0 mi West 11.5 mph 21.9 mph N/A   Clear
10:39 PM 19.4 °F 6.0 °F 12.2 °F 74% 29.77 in 10.0 mi WNW 13.8 mph 24.2 mph N/A   Clear
10:58 PM 19.4 °F 5.5 °F 12.2 °F 74% 29.77 in 10.0 mi WNW 15.0 mph 20.7 mph N/A   Clear
11:19 PM 19.4 °F 8.6 °F 12.2 °F 74% 29.77 in 10.0 mi West 9.2 mph 21.9 mph N/A   Clear
11:39 PM 19.4 °F 7.9 °F 10.4 °F 68% 29.77 in 10.0 mi WNW 10.4 mph 18.4 mph N/A   Clear
11:58 PM 17.6 °F 3.7 °F 10.4 °F 73% 29.78 in 10.0 mi WNW 13.8 mph 20.7 mph N/A   Clear